createdAt,value
2019-04-25T00:00:45.149Z,1.70
2019-04-25T00:03:13.115Z,2.10
2019-04-25T00:05:42.499Z,3.92
2019-04-25T00:08:11.482Z,3.72
2019-04-25T00:10:39.262Z,3.00
2019-04-25T00:13:07.048Z,5.03
2019-04-25T00:15:34.715Z,7.30
2019-04-25T00:18:02.404Z,17.35
2019-04-25T00:20:31.961Z,34.63
2019-04-25T00:23:11.772Z,38.35
2019-04-25T00:26:07.645Z,52.93
2019-04-25T00:28:35.343Z,37.15
2019-04-25T00:31:04.893Z,25.15
2019-04-25T00:33:32.624Z,17.32
2019-04-25T00:36:02.108Z,7.55
2019-04-25T00:38:30.012Z,3.58
2019-04-25T00:40:57.651Z,2.05
2019-04-25T00:43:25.186Z,3.08
2019-04-25T00:45:52.834Z,1.80
2019-04-25T00:48:22.202Z,2.95
2019-04-25T00:50:50.032Z,3.17
2019-04-25T00:53:19.283Z,2.15
2019-04-25T00:55:47.545Z,2.20
2019-04-25T00:58:27.463Z,2.65
2019-04-25T01:01:07.597Z,2.50
2019-04-25T01:03:35.963Z,1.60
2019-04-25T01:06:03.950Z,0.95
2019-04-25T01:08:32.163Z,5.15
2019-04-25T01:11:01.646Z,2.00
2019-04-25T01:13:29.869Z,1.33
2019-04-25T01:15:58.321Z,0.90
2019-04-25T01:18:27.400Z,3.70
2019-04-25T01:20:55.478Z,0.60
2019-04-25T01:23:23.750Z,1.85
2019-04-25T01:25:51.599Z,1.02
2019-04-25T01:28:19.763Z,0.65
2019-04-25T01:30:47.894Z,1.40
2019-04-25T01:33:16.067Z,1.30
2019-04-25T01:36:07.436Z,1.85
2019-04-25T01:39:01.624Z,1.45
2019-04-25T01:41:49.179Z,2.33
2019-04-25T01:44:21.367Z,2.40
2019-04-25T01:46:49.805Z,0.85
2019-04-25T01:49:17.495Z,0.80
2019-04-25T01:51:45.421Z,2.20
2019-04-25T01:54:14.086Z,2.17
2019-04-25T01:56:41.921Z,2.45
2019-04-25T01:59:09.869Z,0.85
2019-04-25T02:01:39.239Z,0.98
2019-04-25T02:04:07.282Z,1.67
2019-04-25T02:06:34.870Z,1.77
2019-04-25T02:09:05.282Z,3.35
2019-04-25T02:11:58.902Z,2.33
2019-04-25T02:14:27.013Z,1.77
2019-04-25T02:16:55.939Z,1.20
2019-04-25T02:19:24.601Z,2.12
2019-04-25T02:21:54.502Z,0.70
2019-04-25T02:24:23.630Z,3.52
2019-04-25T02:26:53.253Z,3.90
2019-04-25T02:29:21.123Z,2.00
2019-04-25T02:31:49.102Z,2.85
2019-04-25T02:39:31.160Z,0.95
2019-04-25T02:42:01.038Z,1.15
2019-04-25T02:44:30.888Z,1.05
2019-04-25T02:47:20.835Z,1.47
2019-04-25T02:50:08.944Z,2.30
2019-04-25T02:52:39.194Z,1.25
2019-04-25T02:55:10.663Z,2.67
2019-04-25T02:57:37.254Z,1.75
2019-04-25T03:00:08.662Z,2.98
2019-04-25T03:02:37.087Z,1.80
2019-04-25T03:05:08.098Z,2.25
2019-04-25T03:07:35.242Z,2.00
2019-04-25T03:10:06.799Z,1.95
2019-04-25T03:12:36.593Z,1.65
2019-04-25T03:15:08.225Z,1.27
2019-04-25T03:17:34.808Z,2.17
2019-04-25T03:20:20.952Z,1.85
2019-04-25T03:22:48.622Z,2.70
2019-04-25T03:25:17.539Z,1.65
2019-04-25T03:27:45.918Z,1.60
2019-04-25T03:30:17.707Z,2.15
2019-04-25T03:32:45.063Z,2.15
2019-04-25T03:35:14.563Z,3.90
2019-04-25T03:37:43.639Z,8.30
2019-04-25T03:40:11.816Z,3.83
2019-04-25T03:42:40.692Z,4.30
2019-04-25T03:45:09.220Z,5.03
2019-04-25T03:47:37.112Z,5.75
2019-04-25T03:50:06.133Z,10.50
2019-04-25T03:52:34.921Z,19.12
2019-04-25T03:55:05.182Z,11.97
2019-04-25T03:57:33.180Z,11.73
2019-04-25T04:00:01.122Z,11.90
2019-04-25T04:02:28.738Z,13.78
2019-04-25T04:04:56.330Z,13.20
2019-04-25T04:07:23.975Z,15.32
2019-04-25T04:09:53.213Z,18.73
2019-04-25T04:12:21.195Z,17.87
2019-04-25T04:14:48.832Z,12.13
2019-04-25T04:17:33.872Z,11.65
2019-04-25T04:20:33.606Z,12.70
2019-04-25T04:23:09.210Z,13.58
2019-04-25T04:25:37.058Z,13.72
2019-04-25T04:28:06.112Z,11.40
2019-04-25T04:30:34.350Z,13.60
2019-04-25T04:33:03.598Z,18.92
2019-04-25T04:35:33.405Z,22.48
2019-04-25T04:38:01.303Z,17.45
2019-04-25T04:40:29.374Z,12.03
2019-04-25T04:42:56.920Z,13.15
2019-04-25T04:45:24.838Z,8.38
2019-04-25T04:47:53.334Z,8.58
2019-04-25T04:50:21.506Z,13.93
2019-04-25T04:52:49.153Z,4.55
2019-04-25T04:55:18.495Z,6.20
2019-04-25T04:57:46.730Z,2.85
2019-04-25T05:00:15.491Z,8.10
2019-04-25T05:03:10.479Z,6.12
2019-04-25T05:06:04.878Z,9.85
2019-04-25T05:08:37.271Z,6.25
2019-04-25T05:11:07.466Z,7.20
2019-04-25T05:13:35.632Z,7.40
2019-04-25T05:16:05.635Z,10.08
2019-04-25T05:18:38.089Z,6.72
2019-04-25T05:21:04.220Z,5.22
2019-04-25T05:23:32.226Z,3.95
2019-04-25T05:25:59.752Z,7.90
2019-04-25T05:28:27.370Z,6.62
2019-04-25T05:31:15.925Z,6.10
2019-04-25T05:33:43.800Z,7.33
2019-04-25T05:36:11.941Z,6.58
2019-04-25T05:38:39.468Z,12.13
2019-04-25T05:41:31.788Z,8.73
2019-04-25T05:43:59.804Z,9.00
2019-04-25T05:46:27.773Z,7.30
2019-04-25T05:48:55.388Z,5.15
2019-04-25T05:51:23.925Z,5.22
2019-04-25T05:53:52.419Z,6.58
2019-04-25T05:56:20.182Z,6.35
2019-04-25T05:58:47.735Z,7.70
2019-04-25T06:01:15.238Z,6.28
2019-04-25T06:03:43.913Z,3.75
2019-04-25T06:06:11.525Z,6.10
2019-04-25T06:08:45.191Z,4.62
2019-04-25T06:14:10.426Z,6.85
2019-04-25T06:16:39.255Z,5.83
2019-04-25T06:19:18.398Z,4.55
2019-04-25T06:21:43.497Z,6.37
2019-04-25T06:24:34.241Z,5.90
2019-04-25T06:27:23.916Z,5.65
2019-04-25T06:30:04.369Z,4.80
2019-04-25T06:32:34.138Z,12.65
2019-04-25T06:35:01.904Z,12.98
2019-04-25T06:37:29.523Z,17.70
2019-04-25T06:39:57.813Z,17.67
2019-04-25T06:42:25.767Z,12.18
2019-04-25T06:44:59.108Z,14.73
2019-04-25T06:47:52.169Z,7.65
2019-04-25T06:50:20.529Z,8.63
2019-04-25T06:52:49.259Z,7.42
2019-04-25T06:55:16.999Z,2.83
2019-04-25T06:57:44.520Z,6.95
2019-04-25T07:00:14.819Z,3.25
2019-04-25T07:02:43.544Z,4.72
2019-04-25T07:05:25.630Z,7.10
2019-04-25T07:07:41.957Z,2.90
2019-04-25T07:10:10.260Z,6.92
2019-04-25T07:12:38.072Z,6.15
2019-04-25T07:15:06.381Z,3.27
2019-04-25T07:17:35.004Z,5.42
2019-04-25T07:20:04.649Z,4.33
2019-04-25T07:22:34.782Z,8.53
2019-04-25T07:25:03.624Z,4.78
2019-04-25T07:27:53.813Z,7.40
2019-04-25T07:30:50.067Z,4.70
2019-04-25T07:33:18.952Z,6.10
2019-04-25T07:35:46.544Z,5.05
2019-04-25T07:38:14.256Z,5.58
2019-04-25T07:40:43.269Z,10.72
2019-04-25T07:43:13.406Z,7.92
2019-04-25T07:45:41.206Z,8.23
2019-04-25T07:48:08.823Z,6.90
2019-04-25T07:50:36.723Z,6.50
2019-04-25T07:53:05.691Z,1.75
2019-04-25T07:55:36.013Z,4.80
2019-04-25T07:58:03.257Z,2.25
2019-04-25T08:00:31.377Z,7.08
2019-04-25T08:02:59.093Z,6.97
2019-04-25T08:05:27.813Z,5.65
2019-04-25T08:07:55.815Z,2.65
2019-04-25T08:10:27.874Z,3.52
2019-04-25T08:12:55.823Z,2.10
2019-04-25T08:15:30.537Z,3.62
2019-04-25T08:18:04.176Z,2.00
2019-04-25T08:20:34.315Z,3.22
2019-04-25T08:23:04.214Z,5.60
2019-04-25T08:25:33.482Z,3.45
2019-04-25T08:28:03.817Z,2.30
2019-04-25T08:30:34.985Z,3.47
2019-04-25T08:33:03.978Z,8.08
2019-04-25T08:35:34.174Z,4.55
2019-04-25T08:38:03.406Z,3.80
2019-04-25T08:40:33.123Z,3.70
2019-04-25T08:43:01.265Z,6.80
2019-04-25T08:45:29.293Z,5.30
2019-04-25T08:47:57.238Z,5.25
2019-04-25T08:50:33.178Z,9.45
2019-04-25T08:52:59.869Z,3.00
2019-04-25T08:55:47.581Z,7.83
2019-04-25T08:58:35.409Z,3.42
2019-04-25T09:01:14.743Z,7.20
2019-04-25T09:03:50.575Z,6.00
2019-04-25T09:06:18.146Z,4.97
2019-04-25T09:08:46.654Z,3.67
2019-04-25T09:11:14.682Z,3.92
2019-04-25T09:16:39.875Z,2.90
2019-04-25T09:19:07.920Z,3.90
2019-04-25T09:21:36.604Z,6.53
2019-04-25T09:24:04.898Z,1.45
2019-04-25T09:26:33.972Z,3.00
2019-04-25T09:29:15.761Z,3.40
2019-04-25T09:31:34.309Z,2.58
2019-04-25T09:34:01.409Z,6.10
2019-04-25T09:36:29.084Z,3.33
2019-04-25T09:38:59.762Z,5.17
2019-04-25T09:41:27.972Z,5.28
2019-04-25T09:43:59.908Z,1.52
2019-04-25T09:46:30.848Z,4.05
2019-04-25T09:49:04.335Z,4.62
2019-04-25T09:51:48.999Z,1.42
2019-04-25T09:54:46.310Z,9.00
2019-04-25T09:57:33.489Z,4.50
2019-04-25T10:00:03.595Z,5.90
2019-04-25T10:02:31.449Z,3.27
2019-04-25T10:05:00.469Z,5.08
2019-04-25T10:07:28.056Z,1.85
2019-04-25T10:09:56.026Z,5.37
2019-04-25T10:12:26.761Z,4.55
2019-04-25T10:15:20.508Z,3.40
2019-04-25T10:17:48.808Z,2.35
2019-04-25T10:20:18.010Z,0.82
2019-04-25T10:22:46.566Z,4.15
2019-04-25T10:25:15.807Z,4.00
2019-04-25T10:27:46.480Z,4.37
2019-04-25T10:30:19.032Z,5.67
2019-04-25T10:32:44.285Z,5.17
2019-04-25T10:35:14.690Z,2.75
2019-04-25T10:37:44.811Z,1.25
2019-04-25T10:40:13.359Z,3.65
2019-04-25T10:42:42.430Z,2.72
2019-04-25T10:45:21.313Z,2.90
2019-04-25T10:47:41.221Z,1.67
2019-04-25T10:50:09.209Z,2.87
2019-04-25T10:52:36.811Z,4.30
2019-04-25T10:55:05.452Z,3.40
2019-04-25T10:57:34.001Z,3.58
2019-04-25T11:00:07.591Z,1.67
2019-04-25T11:02:33.936Z,7.40
2019-04-25T11:05:08.204Z,2.27
2019-04-25T11:07:35.840Z,3.00
2019-04-25T11:10:04.322Z,2.90
2019-04-25T11:12:33.670Z,3.55
2019-04-25T11:15:03.910Z,4.20
2019-04-25T11:17:31.693Z,1.62
2019-04-25T11:19:59.397Z,5.22
2019-04-25T11:22:26.987Z,1.95
2019-04-25T11:24:54.602Z,5.90
2019-04-25T11:27:23.929Z,3.67
2019-04-25T11:29:53.545Z,3.65
2019-04-25T11:32:24.975Z,2.47
2019-04-25T11:34:53.474Z,2.70
2019-04-25T11:37:24.041Z,0.80
2019-04-25T11:39:58.712Z,4.67
2019-04-25T11:42:26.802Z,2.87
2019-04-25T11:44:55.587Z,1.15
2019-04-25T11:47:24.290Z,2.15
2019-04-25T11:49:52.345Z,1.47
2019-04-25T11:52:27.538Z,6.25
2019-04-25T11:54:50.026Z,1.07
2019-04-25T11:57:17.812Z,1.80
2019-04-25T11:59:48.253Z,1.95
2019-04-25T12:02:15.951Z,2.35
2019-04-25T12:04:46.221Z,2.15
2019-04-25T12:07:14.331Z,6.40
2019-04-25T12:09:42.896Z,0.78
2019-04-25T12:12:11.499Z,2.15
2019-04-25T12:14:39.129Z,2.65
2019-04-25T12:17:06.719Z,3.72
2019-04-25T12:19:37.720Z,2.05
2019-04-25T12:22:04.143Z,2.72
2019-04-25T12:24:33.445Z,2.62
2019-04-25T12:27:01.651Z,2.17
2019-04-25T12:29:29.236Z,2.90
2019-04-25T12:31:56.860Z,5.42
2019-04-25T12:34:24.503Z,6.50
2019-04-25T12:36:54.308Z,4.33
2019-04-25T12:39:24.140Z,6.95
2019-04-25T12:41:51.954Z,11.55
2019-04-25T12:44:54.935Z,15.03
2019-04-25T12:47:30.634Z,14.15
2019-04-25T12:49:58.577Z,16.42
2019-04-25T12:52:26.244Z,9.88
2019-04-25T12:54:57.221Z,2.52
2019-04-25T12:57:25.989Z,5.80
2019-04-25T12:59:55.342Z,5.85
2019-04-25T13:02:23.598Z,4.80
2019-04-25T13:04:51.287Z,6.47
2019-04-25T13:07:19.909Z,3.60
2019-04-25T13:09:48.298Z,4.30
2019-04-25T13:12:17.535Z,3.12
2019-04-25T13:14:45.164Z,3.12
2019-04-25T13:17:13.757Z,7.10
2019-04-25T13:19:41.388Z,1.87
2019-04-25T13:22:11.051Z,1.55
2019-04-25T13:24:38.661Z,2.65
2019-04-25T13:27:14.251Z,4.50
2019-04-25T13:30:03.760Z,2.45
2019-04-25T13:33:01.867Z,3.85
2019-04-25T13:35:34.336Z,4.22
2019-04-25T13:38:02.538Z,5.87
2019-04-25T13:40:30.624Z,4.47
2019-04-25T13:42:58.510Z,0.85
2019-04-25T13:45:26.034Z,1.00
2019-04-25T13:47:53.678Z,2.40
2019-04-25T13:50:24.622Z,0.23
2019-04-25T13:52:53.391Z,0.62
2019-04-25T13:55:23.677Z,3.02
2019-04-25T13:57:53.375Z,2.62
2019-04-25T14:00:24.880Z,1.95
2019-04-25T14:02:53.197Z,1.90
2019-04-25T14:05:21.226Z,3.75
2019-04-25T14:07:48.966Z,1.10
2019-04-25T14:10:17.361Z,5.22
2019-04-25T14:12:45.530Z,4.83
2019-04-25T14:15:16.710Z,3.35
2019-04-25T14:18:04.835Z,3.45
2019-04-25T14:20:36.273Z,4.40
2019-04-25T14:23:06.282Z,3.70
2019-04-25T14:25:35.239Z,3.75
2019-04-25T14:28:05.338Z,4.58
2019-04-25T14:30:34.397Z,3.37
2019-04-25T14:33:03.628Z,3.27
2019-04-25T14:35:31.499Z,1.60
2019-04-25T14:37:59.832Z,2.95
2019-04-25T14:40:27.519Z,3.55
2019-04-25T14:42:55.180Z,2.47
2019-04-25T14:45:23.158Z,6.37
2019-04-25T14:47:51.520Z,3.50
2019-04-25T14:50:19.439Z,3.08
2019-04-25T14:52:47.167Z,4.65
2019-04-25T14:55:33.747Z,1.52
2019-04-25T14:58:03.610Z,1.10
2019-04-25T15:00:38.150Z,3.20
2019-04-25T15:03:06.260Z,4.10
2019-04-25T15:05:33.869Z,1.67
2019-04-25T15:08:01.802Z,1.07
2019-04-25T15:10:29.315Z,3.80
2019-04-25T15:12:57.219Z,2.00
2019-04-25T15:15:24.734Z,1.70
2019-04-25T15:17:52.379Z,1.27
2019-04-25T15:20:20.282Z,1.52
2019-04-25T15:22:47.969Z,2.47
2019-04-25T15:25:15.960Z,0.98
2019-04-25T15:27:43.609Z,3.80
2019-04-25T15:30:15.098Z,1.40
2019-04-25T15:32:42.778Z,4.50
2019-04-25T15:35:12.374Z,2.58
2019-04-25T15:37:46.059Z,2.02
2019-04-25T15:40:28.977Z,3.60
2019-04-25T15:43:16.540Z,4.08
2019-04-25T15:46:12.676Z,2.02
2019-04-25T15:48:40.764Z,2.27
2019-04-25T15:51:08.502Z,3.52
2019-04-25T15:53:36.158Z,1.65
2019-04-25T15:56:03.798Z,1.55
2019-04-25T15:58:31.823Z,1.32
2019-04-25T16:00:59.458Z,2.35
2019-04-25T16:03:28.335Z,2.55
2019-04-25T16:05:56.008Z,2.60
2019-04-25T16:08:23.631Z,1.87
2019-04-25T16:11:06.004Z,2.65
2019-04-25T16:13:34.455Z,2.25
2019-04-25T16:16:02.420Z,2.90
2019-04-25T16:18:30.520Z,2.70
2019-04-25T16:20:58.871Z,4.15
2019-04-25T16:23:27.829Z,3.05
2019-04-25T16:25:56.574Z,2.22
2019-04-25T16:28:24.482Z,2.58
2019-04-25T16:30:52.439Z,5.25
2019-04-25T16:33:20.349Z,2.55
2019-04-25T16:35:48.266Z,4.65
2019-04-25T16:38:16.430Z,1.87
2019-04-25T16:40:44.157Z,1.40
2019-04-25T16:43:14.895Z,3.30
2019-04-25T16:45:42.908Z,1.30
2019-04-25T16:48:10.559Z,1.95
2019-04-25T16:50:38.171Z,2.27
2019-04-25T16:53:05.785Z,1.02
2019-04-25T16:55:34.268Z,1.77
2019-04-25T16:58:04.005Z,2.47
2019-04-25T17:00:48.894Z,2.90
2019-04-25T17:03:16.875Z,2.12
2019-04-25T17:05:44.602Z,2.50
2019-04-25T17:08:14.309Z,1.65
2019-04-25T17:10:41.936Z,2.35
2019-04-25T17:13:09.878Z,3.95
2019-04-25T17:15:47.370Z,1.90
2019-04-25T17:18:20.859Z,1.00
2019-04-25T17:20:54.975Z,3.58
2019-04-25T17:23:22.839Z,3.55
2019-04-25T17:25:50.858Z,1.27
2019-04-25T17:28:19.233Z,6.28
2019-04-25T17:30:49.175Z,3.40
2019-04-25T17:33:36.355Z,2.67
2019-04-25T17:36:12.636Z,2.72
2019-04-25T17:38:43.485Z,1.98
2019-04-25T17:41:11.094Z,4.70
2019-04-25T17:43:39.259Z,3.50
2019-04-25T17:46:10.881Z,4.75
2019-04-25T17:48:38.308Z,1.07
2019-04-25T17:51:05.963Z,4.20
2019-04-25T17:53:34.758Z,2.90
2019-04-25T17:56:02.617Z,4.28
2019-04-25T17:58:30.576Z,3.12
2019-04-25T18:00:58.412Z,2.52
2019-04-25T18:03:27.239Z,1.72
2019-04-25T18:05:54.874Z,1.20
2019-04-25T18:08:23.759Z,1.47
2019-04-25T18:10:51.537Z,4.72
2019-04-25T18:13:19.521Z,2.33
2019-04-25T18:16:09.827Z,2.95
2019-04-25T18:18:48.300Z,3.33
2019-04-25T18:21:15.967Z,1.62
2019-04-25T18:24:01.794Z,2.90
2019-04-25T18:26:39.215Z,1.80
2019-04-25T18:29:10.507Z,4.33
2019-04-25T18:31:38.181Z,2.33
2019-04-25T18:34:08.979Z,5.25
2019-04-25T18:36:59.575Z,7.22
2019-04-25T18:39:39.818Z,4.08
2019-04-25T18:42:39.915Z,5.42
2019-04-25T18:45:10.108Z,4.15
2019-04-25T18:47:38.275Z,2.72
2019-04-25T18:50:07.126Z,1.20
2019-04-25T18:52:56.993Z,1.77
2019-04-25T18:55:37.456Z,3.53
2019-04-25T18:58:15.823Z,3.73
2019-04-25T19:00:52.337Z,4.08
2019-04-25T19:03:39.677Z,3.75
2019-04-25T19:06:10.647Z,3.90
2019-04-25T19:08:38.562Z,3.52
2019-04-25T19:11:07.363Z,0.78
2019-04-25T19:13:35.527Z,0.70
2019-04-25T19:16:03.582Z,2.00
2019-04-25T19:18:31.720Z,2.40
2019-04-25T19:20:59.643Z,5.17
2019-04-25T19:23:27.312Z,1.57
2019-04-25T19:25:55.431Z,1.80
2019-04-25T19:28:23.160Z,1.95
2019-04-25T19:30:51.487Z,1.20
2019-04-25T19:33:19.108Z,2.53
2019-04-25T19:35:47.660Z,3.00
2019-04-25T19:38:15.379Z,3.17
2019-04-25T19:40:50.776Z,2.22
2019-04-25T19:43:36.910Z,2.47
2019-04-25T19:46:04.542Z,2.20
2019-04-25T19:48:32.290Z,2.92
2019-04-25T19:50:59.967Z,0.60
2019-04-25T19:53:27.798Z,1.13
2019-04-25T19:55:55.657Z,2.85
2019-04-25T19:58:23.579Z,4.17
2019-04-25T20:00:51.196Z,1.90
2019-04-25T20:03:49.181Z,3.17
2019-04-25T20:06:22.224Z,3.17
2019-04-25T20:08:54.871Z,4.25
2019-04-25T20:11:28.494Z,7.78
2019-04-25T20:13:56.105Z,2.20
2019-04-25T20:16:23.750Z,1.82
2019-04-25T20:18:51.839Z,1.45
2019-04-25T20:21:19.874Z,2.20
2019-04-25T20:23:47.933Z,2.97
2019-04-25T20:26:25.356Z,2.10
2019-04-25T20:28:53.403Z,1.13
2019-04-25T20:31:21.070Z,5.22
2019-04-25T20:34:02.352Z,0.95
2019-04-25T20:36:18.802Z,1.95
2019-04-25T20:38:47.199Z,2.05
2019-04-25T20:41:15.059Z,0.88
2019-04-25T20:43:43.178Z,0.60
2019-04-25T20:46:10.895Z,2.42
2019-04-25T20:48:38.861Z,2.08
2019-04-25T20:51:06.504Z,3.40
2019-04-25T20:53:34.131Z,1.00
2019-04-25T20:56:02.132Z,1.12
2019-04-25T20:58:34.294Z,3.10
2019-04-25T21:01:03.077Z,1.23
2019-04-25T21:03:36.557Z,2.20
2019-04-25T21:06:15.328Z,0.70
2019-04-25T21:08:42.991Z,1.27
2019-04-25T21:11:10.804Z,2.83
2019-04-25T21:14:01.393Z,1.25
2019-04-25T21:16:47.338Z,1.37
2019-04-25T21:19:17.444Z,1.95
2019-04-25T21:21:45.166Z,0.75
2019-04-25T21:24:19.007Z,1.27
2019-04-25T21:26:46.919Z,3.10
2019-04-25T21:29:14.878Z,1.12
2019-04-25T21:31:42.509Z,2.43
2019-04-25T21:34:10.142Z,2.80
2019-04-25T21:36:38.688Z,5.55
2019-04-25T21:39:08.766Z,1.15
2019-04-25T21:41:59.746Z,1.80
2019-04-25T21:44:27.928Z,2.77
2019-04-25T21:46:56.320Z,1.87
2019-04-25T21:49:25.286Z,3.47
2019-04-25T21:51:54.125Z,2.58
2019-04-25T21:54:22.590Z,2.20
2019-04-25T21:56:50.996Z,1.40
2019-04-25T21:59:19.013Z,2.23
2019-04-25T22:01:46.857Z,3.00
2019-04-25T22:04:14.478Z,2.33
2019-04-25T22:06:42.403Z,1.63
2019-04-25T22:09:15.417Z,3.00
2019-04-25T22:11:43.316Z,0.90
2019-04-25T22:14:11.445Z,1.57
2019-04-25T22:16:39.429Z,2.02
2019-04-25T22:19:07.870Z,3.37
2019-04-25T22:21:38.423Z,2.30
2019-04-25T22:24:13.747Z,1.57
2019-04-25T22:26:36.508Z,2.47
2019-04-25T22:29:05.480Z,1.13
2019-04-25T22:31:39.102Z,1.73
2019-04-25T22:34:20.943Z,2.30
2019-04-25T22:36:49.213Z,1.97
2019-04-25T22:39:17.194Z,4.87
2019-04-25T22:41:46.788Z,4.10
2019-04-25T22:44:15.572Z,5.50
2019-04-25T22:46:43.503Z,5.37
2019-04-25T22:49:11.828Z,4.57
2019-04-25T22:51:40.005Z,5.47
2019-04-25T22:54:08.243Z,10.33
2019-04-25T22:56:36.142Z,10.93
2019-04-25T22:59:04.933Z,6.70
2019-04-25T23:01:49.998Z,7.43
2019-04-25T23:04:47.970Z,8.50
2019-04-25T23:07:16.926Z,9.70
2019-04-25T23:09:45.392Z,7.20
2019-04-25T23:12:13.609Z,6.77
2019-04-25T23:14:41.567Z,6.47
2019-04-25T23:17:09.557Z,7.27
2019-04-25T23:19:37.152Z,5.57
2019-04-25T23:22:05.699Z,7.20
2019-04-25T23:24:36.622Z,5.83
2019-04-25T23:27:26.095Z,6.17
2019-04-25T23:29:53.722Z,7.57
2019-04-25T23:32:21.623Z,6.97
2019-04-25T23:34:50.356Z,8.10
2019-04-25T23:37:18.101Z,9.47
2019-04-25T23:39:46.153Z,8.53
2019-04-25T23:42:13.781Z,9.07
2019-04-25T23:44:41.821Z,8.13
2019-04-25T23:47:10.117Z,9.03
2019-04-25T23:49:37.906Z,11.67
2019-04-25T23:52:07.307Z,13.47
2019-04-25T23:54:35.221Z,12.20
2019-04-25T23:57:03.157Z,13.17
2019-04-25T23:59:30.998Z,14.03
